Aspen, Colorado
Current Conditions -  °F | °C
As of 5:53 AM on Monday 20 Oct 2014 (Local Time) from KLXV Reporting Station
Clear Clear  
Wind Chill: 32°   Ceiling: Unl
Heat Index: 32°   Visibility: 10mi
Dew Point: 29°   Wind: 0mph
Humidity: 88%   Direction: NA
Pressure: 30.38"   Gusts: NA
Location:  39.19°N, 106.81°W
Report Text: KLXV 201153Z AUTO 00000KT 10SM CLR 00/M02 A3038 RMK AO2 SLP189 T00001017 10028 21033 56002
Loading
Personal Weather Stations






























Interactive Weather Map
Tropical Storm Tracking
New forecast layout! Learn more

10-Day Weather Forecast

Advertisements
Track Severe Weather on mobile